createdAt,value
2023-03-20T00:02:27.292Z,71.61
2023-03-20T00:04:55.765Z,71.94
2023-03-20T00:07:26.050Z,72.35
2023-03-20T00:09:55.058Z,71.46
2023-03-20T00:12:26.408Z,71.83
2023-03-20T00:14:55.214Z,71.76
2023-03-20T00:17:23.533Z,72.05
2023-03-20T00:19:52.043Z,72.11
2023-03-20T00:22:20.364Z,71.57
2023-03-20T00:24:50.300Z,71.67
2023-03-20T00:27:19.468Z,71.28
2023-03-20T00:29:48.360Z,70.86
2023-03-20T00:32:17.004Z,71.32
2023-03-20T00:34:45.440Z,71.45
2023-03-20T00:37:14.755Z,71.21
2023-03-20T00:39:43.280Z,71.50
2023-03-20T00:42:22.405Z,71.89
2023-03-20T00:44:54.295Z,71.55
2023-03-20T00:47:27.325Z,71.83
2023-03-20T00:49:58.234Z,71.71
2023-03-20T00:52:27.389Z,71.69
2023-03-20T00:54:55.838Z,72.08
2023-03-20T00:57:27.982Z,72.63
2023-03-20T01:00:00.164Z,72.16
2023-03-20T01:02:31.455Z,71.75
2023-03-20T01:05:02.182Z,71.90
2023-03-20T01:07:30.733Z,72.62
2023-03-20T01:09:59.239Z,72.20
2023-03-20T01:12:29.134Z,72.30
2023-03-20T01:14:59.998Z,73.03
2023-03-20T01:17:30.513Z,72.34
2023-03-20T01:19:59.966Z,73.09
2023-03-20T01:22:28.326Z,72.92
2023-03-20T01:24:56.927Z,72.87
2023-03-20T01:27:25.753Z,72.38
2023-03-20T01:29:55.767Z,72.98
2023-03-20T01:32:24.275Z,71.72
2023-03-20T01:34:54.953Z,72.06
2023-03-20T01:37:26.848Z,72.35
2023-03-20T01:39:58.880Z,73.10
2023-03-20T01:42:28.899Z,72.89
2023-03-20T01:44:59.007Z,72.53
2023-03-20T01:47:29.870Z,72.63
2023-03-20T01:50:32.842Z,71.80
2023-03-20T01:53:24.673Z,72.87
2023-03-20T01:55:59.758Z,72.11
2023-03-20T01:58:39.441Z,72.85
2023-03-20T02:01:12.544Z,72.58
2023-03-20T02:03:47.237Z,72.33
2023-03-20T02:06:48.057Z,72.65
2023-03-20T02:09:20.448Z,72.40
2023-03-20T02:11:51.132Z,71.67
2023-03-20T02:14:22.827Z,72.86
2023-03-20T02:16:58.117Z,73.73
2023-03-20T02:19:46.798Z,73.73
2023-03-20T02:22:53.759Z,73.37
2023-03-20T02:26:02.119Z,73.90
2023-03-20T02:29:21.102Z,74.32
2023-03-20T02:32:31.553Z,73.40
2023-03-20T02:35:41.370Z,74.17
2023-03-20T02:38:32.181Z,74.04
2023-03-20T02:41:08.311Z,74.42
2023-03-20T02:43:44.777Z,73.69
2023-03-20T02:46:20.930Z,74.05
2023-03-20T02:48:57.402Z,73.36
2023-03-20T02:51:33.488Z,73.78
2023-03-20T02:54:09.753Z,73.98
2023-03-20T02:56:48.422Z,73.07
2023-03-20T02:59:25.049Z,73.23
2023-03-20T03:02:07.628Z,73.00
2023-03-20T03:04:39.794Z,72.72
2023-03-20T03:07:12.222Z,72.59
2023-03-20T03:09:47.607Z,72.97
2023-03-20T03:12:19.286Z,73.16
2023-03-20T03:14:50.532Z,72.66
2023-03-20T03:17:24.874Z,72.16
2023-03-20T03:19:57.859Z,71.91
2023-03-20T03:22:27.410Z,72.44
2023-03-20T03:24:56.399Z,72.03
2023-03-20T03:27:29.125Z,71.97
2023-03-20T03:30:00.243Z,72.25
2023-03-20T03:32:33.548Z,72.65
2023-03-20T03:35:03.757Z,72.15
2023-03-20T03:37:42.728Z,71.92
2023-03-20T03:40:21.140Z,72.05
2023-03-20T03:42:57.389Z,72.19
2023-03-20T03:45:33.213Z,72.10
2023-03-20T03:48:06.587Z,72.09
2023-03-20T03:50:39.746Z,72.34
2023-03-20T03:53:12.549Z,72.31
2023-03-20T03:55:45.100Z,72.96
2023-03-20T03:58:19.838Z,72.75
2023-03-20T04:00:52.091Z,72.68
2023-03-20T04:03:25.583Z,72.62
2023-03-20T04:05:57.563Z,73.03
2023-03-20T04:08:27.954Z,73.26
2023-03-20T04:10:56.448Z,73.40
2023-03-20T04:13:24.738Z,73.05
2023-03-20T04:15:53.433Z,73.71
2023-03-20T04:18:23.466Z,73.66
2023-03-20T04:20:52.593Z,73.18
2023-03-20T04:23:21.005Z,72.71
2023-03-20T04:25:49.390Z,72.55
2023-03-20T04:28:19.714Z,72.32
2023-03-20T04:31:08.902Z,72.48
2023-03-20T04:33:57.392Z,72.06
2023-03-20T04:36:44.514Z,72.03
2023-03-20T04:39:15.725Z,71.76
2023-03-20T04:41:44.177Z,72.23
2023-03-20T04:44:12.581Z,71.88
2023-03-20T04:46:42.997Z,71.95
2023-03-20T04:49:18.227Z,71.99
2023-03-20T04:51:46.851Z,71.62
2023-03-20T04:54:17.080Z,72.02
2023-03-20T04:56:45.816Z,72.48
2023-03-20T04:59:18.134Z,72.58
2023-03-20T05:01:47.136Z,72.33
2023-03-20T05:04:15.690Z,72.94
2023-03-20T05:06:49.284Z,72.78
2023-03-20T05:09:20.467Z,73.08
2023-03-20T05:11:50.463Z,72.96
2023-03-20T05:14:42.878Z,73.21
2023-03-20T05:17:37.332Z,73.86
2023-03-20T05:20:18.577Z,73.84
2023-03-20T05:23:06.300Z,73.56
2023-03-20T05:25:54.446Z,73.74
2023-03-20T05:28:34.820Z,73.19
2023-03-20T05:31:29.227Z,73.33
2023-03-20T05:34:20.678Z,73.39
2023-03-20T05:37:09.367Z,71.17
2023-03-20T05:40:02.113Z,72.14
2023-03-20T05:42:33.567Z,72.77
2023-03-20T05:45:20.698Z,73.37
2023-03-20T05:48:09.490Z,72.78
2023-03-20T05:50:37.911Z,73.41
2023-03-20T05:53:17.224Z,73.01
2023-03-20T05:56:10.600Z,73.84
2023-03-20T05:58:42.504Z,74.16
2023-03-20T06:01:31.078Z,73.40
2023-03-20T06:03:59.497Z,73.36
2023-03-20T06:06:54.167Z,73.53
2023-03-20T06:09:24.084Z,74.35
2023-03-20T06:11:53.905Z,73.63
2023-03-20T06:14:22.447Z,74.23
2023-03-20T06:16:58.387Z,74.23
2023-03-20T06:19:27.953Z,73.75
2023-03-20T06:21:57.376Z,73.88
2023-03-20T06:24:26.337Z,73.97
2023-03-20T06:26:56.884Z,73.81
2023-03-20T06:29:26.707Z,73.87
2023-03-20T06:31:58.828Z,73.52
2023-03-20T06:34:30.984Z,73.57
2023-03-20T06:36:59.480Z,73.70
2023-03-20T06:39:28.746Z,73.99
2023-03-20T06:41:59.345Z,74.72
2023-03-20T06:44:28.189Z,74.85
2023-03-20T06:47:34.844Z,74.91
2023-03-20T06:50:03.361Z,74.63
2023-03-20T06:52:34.296Z,74.49
2023-03-20T06:55:33.858Z,74.12
2023-03-20T06:58:03.909Z,74.16
2023-03-20T07:00:33.335Z,73.99
2023-03-20T07:03:05.985Z,74.46
2023-03-20T07:05:35.337Z,73.99
2023-03-20T07:08:08.641Z,74.24
2023-03-20T07:10:37.853Z,73.53
2023-03-20T07:13:08.665Z,72.93
2023-03-20T07:15:39.263Z,73.08
2023-03-20T07:18:09.822Z,73.18
2023-03-20T07:20:38.620Z,73.85
2023-03-20T07:23:07.221Z,73.75
2023-03-20T07:25:42.955Z,72.98
2023-03-20T07:28:18.439Z,74.13
2023-03-20T07:30:53.188Z,71.27
2023-03-20T07:33:21.798Z,70.85
2023-03-20T07:35:54.581Z,69.94
2023-03-20T07:38:24.205Z,70.31
2023-03-20T07:41:06.029Z,69.06
2023-03-20T07:43:37.876Z,69.42
2023-03-20T07:46:25.748Z,68.74
2023-03-20T07:48:56.761Z,67.66
2023-03-20T07:51:25.751Z,65.80
2023-03-20T07:53:54.078Z,66.58
2023-03-20T07:56:22.479Z,63.51
2023-03-20T07:58:52.319Z,64.10
2023-03-20T08:01:20.935Z,64.88
2023-03-20T08:03:49.511Z,61.92
2023-03-20T08:06:18.157Z,60.95
2023-03-20T08:08:46.851Z,60.57
2023-03-20T08:11:15.695Z,59.31
2023-03-20T08:13:44.127Z,59.88
2023-03-20T08:16:17.016Z,59.67
2023-03-20T08:18:45.525Z,58.83
2023-03-20T08:21:16.808Z,57.06
2023-03-20T08:23:45.255Z,54.38
2023-03-20T08:26:13.875Z,55.27
2023-03-20T08:28:48.071Z,56.24
2023-03-20T08:31:19.248Z,56.28
2023-03-20T08:33:48.675Z,54.33
2023-03-20T08:36:19.895Z,51.36
2023-03-20T08:38:49.545Z,52.36
2023-03-20T08:41:18.602Z,52.67
2023-03-20T08:43:47.855Z,51.18
2023-03-20T08:46:16.299Z,50.47
2023-03-20T08:48:46.435Z,50.23
2023-03-20T08:51:15.186Z,48.65
2023-03-20T08:53:43.830Z,49.14
2023-03-20T08:56:12.983Z,49.31
2023-03-20T08:58:41.452Z,48.83
2023-03-20T09:01:10.999Z,48.81
2023-03-20T09:03:39.513Z,50.14
2023-03-20T09:06:10.773Z,50.28
2023-03-20T09:08:39.664Z,47.74
2023-03-20T09:11:08.358Z,47.45
2023-03-20T09:13:37.296Z,46.59
2023-03-20T09:16:06.712Z,46.45
2023-03-20T09:18:35.274Z,45.65
2023-03-20T09:21:04.001Z,45.15
2023-03-20T09:23:34.900Z,46.61
2023-03-20T09:26:03.706Z,47.26
2023-03-20T09:28:33.545Z,46.14
2023-03-20T09:31:02.408Z,42.72
2023-03-20T09:33:30.887Z,43.79
2023-03-20T09:35:59.395Z,43.09
2023-03-20T09:38:27.858Z,40.85
2023-03-20T09:41:00.122Z,41.13
2023-03-20T09:43:46.331Z,41.15
2023-03-20T09:46:25.572Z,41.38
2023-03-20T09:49:03.610Z,41.48
2023-03-20T09:51:39.507Z,41.80
2023-03-20T09:54:13.453Z,42.35
2023-03-20T09:56:43.407Z,41.45
2023-03-20T09:59:17.785Z,42.55
2023-03-20T10:01:52.145Z,41.78
2023-03-20T10:04:20.969Z,42.04
2023-03-20T10:06:49.422Z,42.46
2023-03-20T10:09:22.222Z,43.44
2023-03-20T10:12:22.851Z,42.40
2023-03-20T10:14:59.813Z,41.42
2023-03-20T10:17:47.487Z,42.34
2023-03-20T10:20:25.396Z,41.65
2023-03-20T10:22:58.028Z,40.98
2023-03-20T10:25:32.635Z,40.45
2023-03-20T10:28:05.637Z,41.50
2023-03-20T10:30:51.159Z,40.04
2023-03-20T10:33:30.643Z,39.92
2023-03-20T10:36:11.936Z,38.61
2023-03-20T10:38:47.015Z,39.42
2023-03-20T10:41:20.180Z,38.45
2023-03-20T10:43:52.823Z,39.07
2023-03-20T10:46:26.686Z,38.92
2023-03-20T10:49:01.273Z,39.23
2023-03-20T10:51:40.384Z,37.74
2023-03-20T10:54:20.036Z,38.59
2023-03-20T10:56:50.886Z,40.39
2023-03-20T10:59:25.031Z,38.70
2023-03-20T11:01:53.763Z,37.60
2023-03-20T11:04:22.612Z,36.12
2023-03-20T11:06:58.648Z,36.09
2023-03-20T11:09:29.923Z,35.94
2023-03-20T11:12:00.801Z,36.44
2023-03-20T11:14:35.647Z,36.78
2023-03-20T11:17:05.741Z,35.88
2023-03-20T11:19:36.257Z,35.88
2023-03-20T11:22:10.151Z,35.90
2023-03-20T11:24:43.217Z,35.79
2023-03-20T11:27:16.214Z,35.99
2023-03-20T11:29:49.810Z,36.04
2023-03-20T11:32:28.055Z,34.62
2023-03-20T11:34:57.899Z,35.01
2023-03-20T11:37:29.479Z,35.37
2023-03-20T11:40:00.464Z,35.39
2023-03-20T11:42:30.569Z,34.61
2023-03-20T11:45:02.873Z,35.12
2023-03-20T11:47:35.124Z,34.50
2023-03-20T11:50:06.602Z,34.85
2023-03-20T11:52:36.569Z,33.96
2023-03-20T11:55:08.610Z,34.80
2023-03-20T11:57:39.558Z,34.88
2023-03-20T12:00:21.536Z,34.72
2023-03-20T12:02:50.837Z,35.11
2023-03-20T12:05:31.691Z,35.52
2023-03-20T12:08:04.401Z,35.55
2023-03-20T12:10:39.585Z,35.77
2023-03-20T12:13:14.456Z,35.97
2023-03-20T12:15:49.111Z,36.07
2023-03-20T12:18:23.582Z,34.66
2023-03-20T12:21:04.247Z,33.91
2023-03-20T12:23:36.610Z,34.81
2023-03-20T12:26:10.129Z,35.11
2023-03-20T12:28:44.788Z,35.60
2023-03-20T12:31:24.064Z,34.13
2023-03-20T12:33:56.543Z,35.03
2023-03-20T12:36:32.461Z,34.43
2023-03-20T12:39:01.325Z,34.13
2023-03-20T12:41:35.834Z,35.77
2023-03-20T12:44:25.816Z,34.51
2023-03-20T12:47:08.484Z,34.61
2023-03-20T12:49:45.507Z,33.03
2023-03-20T12:52:22.386Z,32.06
2023-03-20T12:55:13.343Z,32.76
2023-03-20T12:57:51.718Z,33.99
2023-03-20T13:00:29.128Z,34.32
2023-03-20T13:03:11.774Z,34.10
2023-03-20T13:05:48.726Z,34.95
2023-03-20T13:08:48.815Z,33.96
2023-03-20T13:11:26.066Z,35.30
2023-03-20T13:13:57.955Z,34.36
2023-03-20T13:16:36.179Z,33.27
2023-03-20T13:19:13.859Z,32.22
2023-03-20T13:21:48.945Z,32.58
2023-03-20T13:24:28.626Z,33.74
2023-03-20T13:27:07.206Z,33.53
2023-03-20T13:29:46.082Z,33.16
2023-03-20T13:32:28.767Z,33.35
2023-03-20T13:35:23.654Z,32.93
2023-03-20T13:37:56.060Z,33.06
2023-03-20T13:40:28.459Z,33.25
2023-03-20T13:43:01.029Z,33.50
2023-03-20T13:45:36.227Z,32.46
2023-03-20T13:48:20.899Z,33.49
2023-03-20T13:50:58.025Z,33.01
2023-03-20T13:53:36.370Z,32.61
2023-03-20T13:56:16.196Z,33.46
2023-03-20T13:59:04.996Z,33.74
2023-03-20T14:01:43.535Z,33.37
2023-03-20T14:04:17.508Z,33.01
2023-03-20T14:06:51.516Z,33.32
2023-03-20T14:09:29.681Z,34.15
2023-03-20T14:12:02.857Z,33.70
2023-03-20T14:14:32.633Z,33.42
2023-03-20T14:17:10.457Z,33.04
2023-03-20T14:19:40.124Z,32.37
2023-03-20T14:22:17.697Z,32.36
2023-03-20T14:24:53.393Z,32.55
2023-03-20T14:27:36.819Z,32.72
2023-03-20T14:30:40.902Z,32.89
2023-03-20T14:33:27.854Z,33.20
2023-03-20T14:36:21.237Z,33.51
2023-03-20T14:39:06.795Z,33.74
2023-03-20T14:41:49.928Z,32.58
2023-03-20T14:44:27.953Z,33.01
2023-03-20T14:47:03.609Z,33.38
2023-03-20T14:49:50.308Z,33.84
2023-03-20T14:52:44.114Z,33.25
2023-03-20T14:55:31.777Z,33.27
2023-03-20T14:58:04.592Z,32.60
2023-03-20T15:00:37.955Z,32.79
2023-03-20T15:03:10.023Z,33.13
2023-03-20T15:05:40.548Z,32.69
2023-03-20T15:08:11.553Z,33.65
2023-03-20T15:10:48.843Z,34.11
2023-03-20T15:13:18.856Z,34.09
2023-03-20T15:15:55.541Z,33.43
2023-03-20T15:18:26.366Z,33.84
2023-03-20T15:20:57.672Z,32.80
2023-03-20T15:23:27.351Z,32.65
2023-03-20T15:25:57.120Z,32.21
2023-03-20T15:28:27.567Z,32.86
2023-03-20T15:30:59.409Z,33.65
2023-03-20T15:33:30.743Z,33.60
2023-03-20T15:36:00.223Z,33.06
2023-03-20T15:38:34.010Z,33.14
2023-03-20T15:41:07.557Z,32.87
2023-03-20T15:43:38.299Z,32.02
2023-03-20T15:46:18.053Z,32.61
2023-03-20T15:48:50.541Z,33.19
2023-03-20T15:51:21.425Z,33.01
2023-03-20T15:53:50.540Z,32.76
2023-03-20T15:56:25.296Z,32.95
2023-03-20T15:58:55.495Z,33.18
2023-03-20T16:01:25.872Z,33.53
2023-03-20T16:03:58.433Z,33.77
2023-03-20T16:06:28.133Z,33.11
2023-03-20T16:09:02.476Z,33.19
2023-03-20T16:11:42.173Z,32.61
2023-03-20T16:14:15.894Z,32.93
2023-03-20T16:16:45.479Z,33.50
2023-03-20T16:19:15.266Z,33.13
2023-03-20T16:21:49.093Z,33.85
2023-03-20T16:24:22.233Z,34.79
2023-03-20T16:26:54.497Z,34.86
2023-03-20T16:29:24.507Z,34.30
2023-03-20T16:31:58.174Z,34.28
2023-03-20T16:34:31.900Z,34.20
2023-03-20T16:37:03.331Z,34.08
2023-03-20T16:39:32.487Z,34.26
2023-03-20T16:42:13.180Z,34.04
2023-03-20T16:44:42.806Z,34.29
2023-03-20T16:47:23.696Z,34.20
2023-03-20T16:50:08.951Z,34.36
2023-03-20T16:52:39.709Z,35.04
2023-03-20T16:55:16.440Z,34.76
2023-03-20T16:57:51.135Z,34.72
2023-03-20T17:00:25.794Z,35.54
2023-03-20T17:03:02.241Z,36.00
2023-03-20T17:05:55.770Z,35.68
2023-03-20T17:08:29.945Z,36.48
2023-03-20T17:11:01.692Z,36.56
2023-03-20T17:13:31.599Z,37.07
2023-03-20T17:16:01.366Z,37.08
2023-03-20T17:18:30.374Z,37.22
2023-03-20T17:20:59.137Z,37.88
2023-03-20T17:23:27.958Z,38.59
2023-03-20T17:25:56.356Z,39.05
2023-03-20T17:28:30.083Z,39.31
2023-03-20T17:31:00.903Z,39.85
2023-03-20T17:33:30.007Z,40.16
2023-03-20T17:35:59.980Z,41.49
2023-03-20T17:38:28.635Z,42.96
2023-03-20T17:40:57.997Z,43.87
2023-03-20T17:43:27.427Z,44.71
2023-03-20T17:45:55.855Z,45.83
2023-03-20T17:48:27.100Z,45.98
2023-03-20T17:50:55.581Z,46.34
2023-03-20T17:53:26.277Z,46.04
2023-03-20T17:55:54.766Z,46.79
2023-03-20T17:58:24.977Z,47.72
2023-03-20T18:00:55.373Z,48.19
2023-03-20T18:03:25.250Z,49.06
2023-03-20T18:05:54.032Z,50.19
2023-03-20T18:08:24.063Z,50.64
2023-03-20T18:10:54.458Z,50.68
2023-03-20T18:13:25.411Z,51.00
2023-03-20T18:15:56.931Z,51.49
2023-03-20T18:18:27.915Z,52.29
2023-03-20T18:20:57.848Z,52.44
2023-03-20T18:23:26.671Z,52.69
2023-03-20T18:25:55.503Z,52.84
2023-03-20T18:28:24.832Z,52.97
2023-03-20T18:30:54.824Z,53.08
2023-03-20T18:33:27.866Z,53.16
2023-03-20T18:35:58.148Z,52.68
2023-03-20T18:38:28.331Z,53.20
2023-03-20T18:40:57.262Z,52.88
2023-03-20T18:43:26.023Z,53.33
2023-03-20T18:45:55.041Z,53.92
2023-03-20T18:48:25.240Z,54.39
2023-03-20T18:51:01.247Z,54.62
2023-03-20T18:53:31.952Z,54.74
2023-03-20T18:56:00.960Z,55.72
2023-03-20T18:58:31.957Z,56.31
2023-03-20T19:01:03.860Z,55.50
2023-03-20T19:03:39.454Z,52.41
2023-03-20T19:06:14.478Z,53.83
2023-03-20T19:08:46.380Z,54.13
2023-03-20T19:11:18.418Z,54.96
2023-03-20T19:13:51.405Z,55.46
2023-03-20T19:16:25.959Z,55.70
2023-03-20T19:18:56.476Z,56.23
2023-03-20T19:21:26.568Z,56.67
2023-03-20T19:23:58.251Z,56.86
2023-03-20T19:26:28.387Z,57.15
2023-03-20T19:28:58.983Z,57.63
2023-03-20T19:31:28.018Z,58.23
2023-03-20T19:33:57.093Z,58.58
2023-03-20T19:36:29.434Z,59.04
2023-03-20T19:39:01.019Z,59.39
2023-03-20T19:41:32.275Z,59.69
2023-03-20T19:44:01.714Z,59.49
2023-03-20T19:46:40.800Z,59.10
2023-03-20T19:49:19.067Z,59.09
2023-03-20T19:51:48.163Z,58.67
2023-03-20T19:54:18.513Z,58.57
2023-03-20T19:56:47.006Z,58.59
2023-03-20T19:59:16.869Z,59.20
2023-03-20T20:01:46.786Z,59.55
2023-03-20T20:04:16.354Z,59.58
2023-03-20T20:06:47.403Z,59.91
2023-03-20T20:09:18.274Z,60.24
2023-03-20T20:11:46.757Z,60.17
2023-03-20T20:14:15.469Z,60.04
2023-03-20T20:16:45.990Z,60.67
2023-03-20T20:19:14.710Z,60.56
2023-03-20T20:24:33.381Z,61.00
2023-03-20T20:27:18.189Z,61.97
2023-03-20T20:29:51.604Z,62.05
2023-03-20T20:32:23.304Z,61.85
2023-03-20T20:35:39.906Z,62.41
2023-03-20T20:38:27.175Z,62.28
2023-03-20T20:40:32.457Z,63.32
2023-03-20T20:43:02.413Z,63.36
2023-03-20T20:45:32.250Z,63.48
2023-03-20T20:48:01.491Z,63.07
2023-03-20T20:50:32.646Z,63.14
2023-03-20T20:53:01.925Z,62.81
2023-03-20T20:55:32.299Z,63.05
2023-03-20T20:58:01.442Z,63.46
2023-03-20T21:00:48.435Z,64.03
2023-03-20T21:03:17.319Z,64.48
2023-03-20T21:05:45.701Z,64.02
2023-03-20T21:08:14.668Z,64.71
2023-03-20T21:10:46.006Z,64.57
2023-03-20T21:13:14.656Z,65.14
2023-03-20T21:15:43.539Z,65.22
2023-03-20T21:18:11.992Z,64.47
2023-03-20T21:20:40.399Z,65.22
2023-03-20T21:23:08.799Z,65.40
2023-03-20T21:25:40.976Z,65.28
2023-03-20T21:28:11.949Z,65.30
2023-03-20T21:30:54.458Z,65.61
2023-03-20T21:33:30.679Z,65.04
2023-03-20T21:35:59.159Z,65.52
2023-03-20T21:41:16.817Z,65.18
2023-03-20T21:43:47.842Z,65.65
2023-03-20T21:58:22.720Z,65.33
2023-03-20T22:03:29.061Z,66.30
2023-03-20T22:18:05.895Z,66.52
2023-03-20T22:34:54.366Z,66.65
2023-03-20T22:43:26.502Z,67.06
2023-03-20T22:45:42.943Z,67.27
2023-03-20T22:48:15.961Z,66.30
2023-03-20T22:50:45.957Z,66.23
2023-03-20T22:53:14.433Z,66.72
2023-03-20T22:55:44.228Z,66.42
2023-03-20T22:58:12.875Z,66.53
2023-03-20T23:00:41.638Z,67.13
2023-03-20T23:03:25.546Z,67.04
2023-03-20T23:06:07.574Z,66.82
2023-03-20T23:08:47.974Z,67.31
2023-03-20T23:11:21.573Z,67.40
2023-03-20T23:13:50.025Z,67.23
2023-03-20T23:16:19.207Z,66.60
2023-03-20T23:18:47.648Z,67.79
2023-03-20T23:21:17.479Z,67.63
2023-03-20T23:23:46.177Z,67.46
2023-03-20T23:26:16.355Z,67.66
2023-03-20T23:28:47.674Z,67.79
2023-03-20T23:31:18.728Z,67.63
2023-03-20T23:33:50.544Z,67.28
2023-03-20T23:36:34.914Z,67.61
2023-03-20T23:39:04.784Z,67.55
2023-03-20T23:42:01.753Z,67.74
2023-03-20T23:44:21.811Z,67.91
2023-03-20T23:46:50.499Z,67.61
2023-03-20T23:49:19.035Z,67.87
2023-03-20T23:51:48.874Z,67.97
2023-03-20T23:54:17.497Z,68.49
2023-03-20T23:56:45.940Z,67.92
2023-03-20T23:59:21.570Z,68.34
